createdAt,value
2022-12-26T00:01:39.251Z,21.00
2022-12-26T00:04:06.184Z,21.50
2022-12-26T00:06:52.476Z,22.88
2022-12-26T00:09:18.896Z,22.83
2022-12-26T00:11:45.344Z,21.75
2022-12-26T00:14:14.021Z,21.67
2022-12-26T00:16:45.054Z,20.25
2022-12-26T00:19:11.864Z,19.88
2022-12-26T00:21:38.435Z,19.90
2022-12-26T00:24:05.127Z,21.52
2022-12-26T00:26:32.879Z,19.73
2022-12-26T00:28:59.697Z,19.08
2022-12-26T00:31:28.825Z,18.55
2022-12-26T00:33:55.619Z,18.45
2022-12-26T00:36:24.672Z,17.88
2022-12-26T00:38:51.707Z,18.23
2022-12-26T00:41:19.274Z,18.52
2022-12-26T00:43:45.720Z,18.60
2022-12-26T00:46:12.222Z,17.42
2022-12-26T00:48:38.611Z,17.33
2022-12-26T00:51:05.492Z,16.85
2022-12-26T00:53:32.227Z,17.83
2022-12-26T00:55:58.737Z,16.60
2022-12-26T00:58:25.511Z,16.90
2022-12-26T01:00:52.128Z,17.08
2022-12-26T01:03:19.230Z,16.25
2022-12-26T01:05:50.893Z,16.02
2022-12-26T01:08:23.260Z,16.80
2022-12-26T01:10:51.077Z,17.10
2022-12-26T01:13:17.496Z,17.52
2022-12-26T01:15:48.920Z,17.67
2022-12-26T01:18:15.317Z,17.23
2022-12-26T01:20:41.688Z,17.58
2022-12-26T01:23:08.085Z,17.50
2022-12-26T01:25:34.461Z,16.67
2022-12-26T01:28:00.851Z,16.23
2022-12-26T01:30:27.260Z,17.10
2022-12-26T01:32:53.648Z,17.30
2022-12-26T01:35:20.002Z,17.30
2022-12-26T01:37:46.379Z,16.88
2022-12-26T01:40:12.863Z,16.65
2022-12-26T01:42:40.436Z,16.67
2022-12-26T01:45:24.716Z,17.45
2022-12-26T01:47:55.350Z,17.05
2022-12-26T01:50:29.816Z,16.90
2022-12-26T01:52:58.681Z,17.33
2022-12-26T01:55:26.858Z,16.10
2022-12-26T01:58:01.154Z,17.15
2022-12-26T02:00:27.928Z,16.88
2022-12-26T02:03:13.026Z,15.57
2022-12-26T02:05:39.844Z,18.63
2022-12-26T02:08:10.267Z,18.05
2022-12-26T02:10:42.564Z,18.92
2022-12-26T02:13:10.392Z,18.75
2022-12-26T02:15:36.814Z,19.02
2022-12-26T02:18:03.212Z,16.67
2022-12-26T02:20:39.993Z,15.75
2022-12-26T02:23:12.313Z,16.02
2022-12-26T02:26:16.274Z,16.63
2022-12-26T02:28:53.181Z,16.48
2022-12-26T02:31:36.860Z,16.27
2022-12-26T02:34:20.889Z,17.00
2022-12-26T02:37:04.447Z,16.25
2022-12-26T02:40:11.877Z,16.20
2022-12-26T02:43:00.063Z,17.88
2022-12-26T02:45:54.692Z,18.05
2022-12-26T02:48:37.114Z,17.70
2022-12-26T02:51:47.339Z,17.30
2022-12-26T02:54:50.900Z,17.80
2022-12-26T02:57:38.838Z,17.83
2022-12-26T03:00:27.545Z,18.20
2022-12-26T03:03:16.186Z,19.15
2022-12-26T03:06:04.764Z,19.80
2022-12-26T03:09:16.256Z,19.85
2022-12-26T03:12:04.225Z,19.80
2022-12-26T03:14:37.076Z,21.58
2022-12-26T03:17:22.200Z,21.33
2022-12-26T03:19:59.900Z,21.25
2022-12-26T03:22:39.691Z,21.80
2022-12-26T03:25:28.360Z,22.33
2022-12-26T03:27:54.887Z,22.08
2022-12-26T03:30:40.056Z,21.95
2022-12-26T03:33:27.109Z,23.10
2022-12-26T03:35:53.661Z,21.33
2022-12-26T03:38:24.148Z,21.48
2022-12-26T03:41:21.796Z,20.75
2022-12-26T03:44:24.162Z,20.48
2022-12-26T03:47:23.057Z,19.13
2022-12-26T03:50:12.551Z,18.92
2022-12-26T03:53:05.746Z,18.00
2022-12-26T03:56:01.443Z,16.67
2022-12-26T03:58:53.388Z,17.20
2022-12-26T04:01:40.749Z,17.27
2022-12-26T04:04:28.885Z,15.77
2022-12-26T04:07:23.625Z,16.50
2022-12-26T04:10:15.949Z,15.68
2022-12-26T04:13:03.035Z,15.57
2022-12-26T04:16:18.885Z,15.45
2022-12-26T04:19:18.120Z,16.63
2022-12-26T04:22:25.266Z,16.40
2022-12-26T04:25:49.781Z,16.20
2022-12-26T04:28:30.662Z,16.35
2022-12-26T04:31:20.605Z,17.08
2022-12-26T04:34:16.903Z,17.73
2022-12-26T04:37:14.542Z,18.50
2022-12-26T04:40:03.504Z,17.48
2022-12-26T04:42:48.931Z,17.48
2022-12-26T04:45:15.642Z,17.58
2022-12-26T04:48:01.987Z,18.50
2022-12-26T04:50:28.428Z,19.60
2022-12-26T04:53:01.155Z,19.45
2022-12-26T04:55:30.013Z,19.17
2022-12-26T04:57:56.818Z,17.83
2022-12-26T05:00:25.422Z,18.48
2022-12-26T05:03:16.214Z,17.85
2022-12-26T05:06:13.171Z,18.23
2022-12-26T05:09:00.559Z,19.00
2022-12-26T05:11:27.560Z,18.63
2022-12-26T05:13:55.323Z,19.08
2022-12-26T05:16:40.885Z,18.88
2022-12-26T05:19:28.959Z,18.40
2022-12-26T05:22:13.946Z,18.15
2022-12-26T05:24:59.951Z,17.33
2022-12-26T05:27:58.345Z,18.20
2022-12-26T05:30:25.012Z,17.30
2022-12-26T05:33:10.125Z,16.95
2022-12-26T05:35:36.786Z,17.48
2022-12-26T05:38:03.571Z,17.58
2022-12-26T05:40:30.124Z,17.45
2022-12-26T05:42:56.540Z,15.50
2022-12-26T05:45:22.978Z,16.02
2022-12-26T05:47:52.091Z,16.33
2022-12-26T05:50:18.847Z,16.98
2022-12-26T05:52:45.230Z,16.67
2022-12-26T05:55:11.634Z,17.13
2022-12-26T05:57:38.127Z,17.27
2022-12-26T06:00:04.823Z,17.17
2022-12-26T06:02:31.374Z,17.30
2022-12-26T06:04:57.906Z,18.08
2022-12-26T06:07:24.329Z,18.48
2022-12-26T06:09:50.720Z,18.20
2022-12-26T06:12:17.107Z,18.38
2022-12-26T06:14:43.657Z,18.65
2022-12-26T06:17:10.532Z,17.77
2022-12-26T06:19:41.386Z,18.08
2022-12-26T06:24:35.764Z,18.60
2022-12-26T06:27:02.141Z,18.85
2022-12-26T06:29:28.561Z,18.58
2022-12-26T06:31:55.009Z,20.35
2022-12-26T06:34:21.482Z,18.52
2022-12-26T06:36:47.893Z,19.10
2022-12-26T06:39:14.283Z,18.80
2022-12-26T06:41:40.677Z,19.35
2022-12-26T06:44:10.514Z,20.33
2022-12-26T06:46:39.434Z,19.35
2022-12-26T06:49:08.398Z,20.65
2022-12-26T06:51:37.701Z,19.02
2022-12-26T06:54:04.177Z,19.95
2022-12-26T06:56:32.110Z,19.45
2022-12-26T06:59:00.030Z,19.63
2022-12-26T07:01:27.966Z,19.13
2022-12-26T07:03:55.521Z,19.73
2022-12-26T07:06:33.380Z,19.95
2022-12-26T07:09:04.940Z,20.33
2022-12-26T07:11:33.731Z,20.33
2022-12-26T07:14:00.803Z,17.50
2022-12-26T07:16:27.635Z,19.27
2022-12-26T07:18:55.656Z,19.23
2022-12-26T07:21:22.745Z,18.52
2022-12-26T07:23:49.625Z,17.10
2022-12-26T07:26:16.076Z,18.42
2022-12-26T07:28:42.628Z,18.63
2022-12-26T07:31:09.122Z,17.02
2022-12-26T07:33:35.629Z,17.30
2022-12-26T07:36:06.387Z,16.60
2022-12-26T07:38:33.377Z,17.30
2022-12-26T07:41:20.500Z,16.50
2022-12-26T07:43:46.889Z,15.55
2022-12-26T07:46:13.369Z,14.90
2022-12-26T07:48:39.794Z,14.60
2022-12-26T07:51:06.252Z,13.90
2022-12-26T07:53:32.684Z,13.88
2022-12-26T07:55:59.524Z,14.45
2022-12-26T07:58:25.985Z,14.80
2022-12-26T08:00:52.524Z,15.07
2022-12-26T08:03:19.061Z,13.60
2022-12-26T08:05:49.333Z,13.63
2022-12-26T08:08:15.989Z,13.20
2022-12-26T08:10:42.453Z,13.85
2022-12-26T08:13:08.996Z,12.18
2022-12-26T08:15:38.539Z,11.95
2022-12-26T08:18:05.240Z,11.68
2022-12-26T08:20:31.663Z,11.27
2022-12-26T08:25:29.419Z,11.63
2022-12-26T08:27:55.806Z,11.90
2022-12-26T08:30:22.245Z,12.23
2022-12-26T08:32:51.165Z,13.10
2022-12-26T08:35:17.539Z,13.98
2022-12-26T08:37:43.963Z,14.43
2022-12-26T08:40:10.478Z,14.45
2022-12-26T08:42:44.644Z,14.48
2022-12-26T08:45:16.860Z,14.85
2022-12-26T08:47:43.363Z,15.00
2022-12-26T08:50:10.301Z,15.98
2022-12-26T08:52:36.776Z,15.48
2022-12-26T08:55:03.452Z,17.00
2022-12-26T08:57:30.003Z,17.33
2022-12-26T08:59:56.377Z,18.85
2022-12-26T09:02:22.974Z,19.02
2022-12-26T09:04:49.506Z,18.45
2022-12-26T09:07:18.789Z,19.90
2022-12-26T09:09:45.306Z,20.90
2022-12-26T09:12:11.711Z,21.75
2022-12-26T09:14:38.139Z,22.50
2022-12-26T09:17:04.582Z,20.27
2022-12-26T09:19:32.423Z,19.27
2022-12-26T09:22:17.886Z,18.15
2022-12-26T09:24:44.273Z,17.48
2022-12-26T09:27:10.828Z,15.57
2022-12-26T09:29:40.058Z,15.38
2022-12-26T09:32:06.597Z,15.40
2022-12-26T09:34:32.999Z,16.83
2022-12-26T09:36:59.348Z,15.18
2022-12-26T09:39:25.812Z,14.68
2022-12-26T09:42:13.498Z,14.88
2022-12-26T09:44:49.018Z,14.05
2022-12-26T09:47:34.764Z,15.20
2022-12-26T09:50:01.055Z,14.20
2022-12-26T09:52:37.670Z,13.60
2022-12-26T09:55:15.177Z,13.80
2022-12-26T09:57:47.781Z,13.57
2022-12-26T10:00:25.412Z,13.80
2022-12-26T10:02:54.142Z,13.18
2022-12-26T10:05:22.247Z,13.88
2022-12-26T10:07:52.975Z,13.52
2022-12-26T10:10:46.599Z,12.63
2022-12-26T10:13:22.152Z,11.50
2022-12-26T10:15:59.060Z,9.02
2022-12-26T10:18:31.662Z,8.27
2022-12-26T10:23:40.851Z,6.88
2022-12-26T10:26:12.730Z,6.30
2022-12-26T10:28:49.753Z,5.60
2022-12-26T10:31:24.516Z,6.22
2022-12-26T10:34:17.051Z,5.88
2022-12-26T10:37:11.111Z,6.07
2022-12-26T10:39:49.153Z,5.38
2022-12-26T10:42:30.140Z,5.03
2022-12-26T10:44:57.790Z,5.07
2022-12-26T10:47:40.029Z,5.53
2022-12-26T10:50:06.759Z,4.90
2022-12-26T10:52:37.841Z,5.07
2022-12-26T10:55:28.649Z,5.03
2022-12-26T10:57:52.838Z,4.90
2022-12-26T11:00:24.157Z,4.60
2022-12-26T11:03:08.799Z,4.35
2022-12-26T11:08:46.752Z,3.97
2022-12-26T11:11:20.524Z,3.75
2022-12-26T11:14:01.778Z,3.60
2022-12-26T11:16:39.083Z,3.30
2022-12-26T11:19:05.665Z,3.50
2022-12-26T11:21:33.458Z,3.70
2022-12-26T11:24:09.131Z,3.53
2022-12-26T11:26:35.881Z,3.00
2022-12-26T11:29:05.548Z,3.20
2022-12-26T11:31:32.884Z,3.30
2022-12-26T11:34:01.446Z,3.22
2022-12-26T11:36:28.820Z,3.33
2022-12-26T11:39:04.334Z,4.05
2022-12-26T11:41:42.458Z,3.72
2022-12-26T11:44:23.877Z,4.00
2022-12-26T11:47:12.374Z,3.67
2022-12-26T11:49:47.112Z,3.78
2022-12-26T11:52:46.110Z,3.50
2022-12-26T11:55:39.131Z,3.83
2022-12-26T11:58:08.564Z,3.80
2022-12-26T12:00:36.531Z,3.63
2022-12-26T12:03:06.301Z,4.53
2022-12-26T12:05:50.235Z,5.30
2022-12-26T12:08:16.559Z,4.80
2022-12-26T12:10:58.113Z,4.60
2022-12-26T12:13:31.509Z,6.25
2022-12-26T12:16:36.092Z,3.95
2022-12-26T12:19:17.949Z,3.58
2022-12-26T12:21:45.336Z,3.90
2022-12-26T12:24:30.401Z,3.80
2022-12-26T12:27:04.933Z,3.33
2022-12-26T12:30:06.440Z,3.70
2022-12-26T12:32:44.881Z,3.17
2022-12-26T12:35:28.624Z,3.17
2022-12-26T12:38:17.761Z,3.30
2022-12-26T12:41:38.082Z,3.30
2022-12-26T12:44:05.532Z,2.95
2022-12-26T12:47:02.997Z,3.10
2022-12-26T12:49:38.783Z,2.60
2022-12-26T12:52:43.119Z,2.30
2022-12-26T12:55:43.677Z,2.42
2022-12-26T12:58:20.281Z,2.83
2022-12-26T13:01:00.773Z,3.50
2022-12-26T13:03:33.256Z,1.50
2022-12-26T13:08:28.989Z,1.20
2022-12-26T13:11:02.845Z,1.70
2022-12-26T13:13:37.164Z,2.10
2022-12-26T13:16:14.310Z,2.08
2022-12-26T13:18:51.796Z,2.25
2022-12-26T13:21:18.457Z,2.45
2022-12-26T13:24:19.278Z,2.58
2022-12-26T13:26:50.002Z,1.85
2022-12-26T13:29:20.879Z,1.90
2022-12-26T13:31:47.385Z,2.00
2022-12-26T13:34:19.936Z,2.10
2022-12-26T13:39:25.730Z,2.55
2022-12-26T13:42:32.911Z,2.58
2022-12-26T13:45:36.639Z,2.90
2022-12-26T13:48:12.153Z,2.30
2022-12-26T13:50:56.553Z,2.20
2022-12-26T13:53:26.100Z,2.42
2022-12-26T13:55:56.861Z,2.60
2022-12-26T13:58:58.701Z,2.38
2022-12-26T14:01:43.798Z,1.85
2022-12-26T14:04:31.664Z,2.65
2022-12-26T14:07:20.561Z,2.20
2022-12-26T14:10:05.745Z,3.00
2022-12-26T14:12:50.764Z,2.35
2022-12-26T14:15:25.477Z,1.48
2022-12-26T14:18:10.502Z,1.63
2022-12-26T14:20:49.774Z,1.95
2022-12-26T14:23:26.110Z,1.60
2022-12-26T14:26:17.544Z,1.88
2022-12-26T14:28:55.957Z,1.60
2022-12-26T14:31:40.230Z,2.78
2022-12-26T14:34:25.433Z,2.05
2022-12-26T14:36:53.273Z,2.50
2022-12-26T14:39:53.394Z,2.08
2022-12-26T14:42:43.592Z,2.45
2022-12-26T14:45:29.970Z,2.33
2022-12-26T14:47:56.500Z,2.15
2022-12-26T14:50:32.139Z,2.30
2022-12-26T14:53:24.477Z,2.40
2022-12-26T14:55:52.206Z,2.28
2022-12-26T14:58:39.884Z,2.53
2022-12-26T15:01:09.275Z,2.30
2022-12-26T15:03:59.667Z,2.22
2022-12-26T15:06:57.002Z,1.85
2022-12-26T15:09:29.239Z,2.08
2022-12-26T15:12:17.015Z,1.85
2022-12-26T15:14:57.179Z,2.10
2022-12-26T15:17:44.565Z,2.90
2022-12-26T15:20:45.005Z,2.50
2022-12-26T15:23:28.601Z,2.13
2022-12-26T15:26:25.274Z,2.50
2022-12-26T15:29:16.555Z,2.53
2022-12-26T15:32:07.709Z,2.55
2022-12-26T15:34:49.467Z,2.65
2022-12-26T15:37:53.382Z,2.30
2022-12-26T15:40:30.481Z,2.40
2022-12-26T15:43:18.073Z,2.53
2022-12-26T15:46:10.742Z,2.55
2022-12-26T15:49:12.582Z,2.33
2022-12-26T15:52:01.174Z,2.13
2022-12-26T15:54:52.388Z,3.83
2022-12-26T15:57:27.569Z,3.22
2022-12-26T16:00:15.343Z,2.70
2022-12-26T16:02:46.876Z,2.45
2022-12-26T16:05:28.353Z,1.93
2022-12-26T16:08:00.724Z,2.55
2022-12-26T16:10:31.570Z,1.95
2022-12-26T16:13:03.995Z,1.98
2022-12-26T16:15:31.879Z,1.73
2022-12-26T16:18:35.387Z,2.15
2022-12-26T16:21:23.388Z,2.25
2022-12-26T16:23:51.156Z,2.03
2022-12-26T16:26:22.759Z,2.28
2022-12-26T16:28:49.252Z,3.50
2022-12-26T16:31:21.738Z,3.00
2022-12-26T16:36:22.730Z,3.25
2022-12-26T16:38:49.686Z,3.03
2022-12-26T16:41:27.056Z,4.07
2022-12-26T16:43:55.347Z,3.70
2022-12-26T16:46:24.879Z,3.05
2022-12-26T16:48:57.733Z,2.75
2022-12-26T16:51:33.128Z,2.78
2022-12-26T16:54:26.509Z,3.35
2022-12-26T16:57:14.438Z,3.13
2022-12-26T16:59:58.999Z,3.92
2022-12-26T17:02:33.287Z,2.47
2022-12-26T17:05:06.099Z,3.00
2022-12-26T17:07:34.609Z,2.80
2022-12-26T17:10:01.253Z,3.22
2022-12-26T17:12:27.506Z,3.15
2022-12-26T17:14:55.595Z,3.75
2022-12-26T17:17:21.866Z,3.40
2022-12-26T17:19:53.914Z,3.20
2022-12-26T17:22:30.939Z,3.20
2022-12-26T17:25:29.408Z,3.25
2022-12-26T17:28:07.973Z,3.22
2022-12-26T17:30:36.317Z,3.28
2022-12-26T17:33:14.344Z,2.83
2022-12-26T17:36:25.272Z,2.65
2022-12-26T17:38:28.166Z,2.97
2022-12-26T17:40:56.605Z,3.28
2022-12-26T17:43:31.281Z,2.47
2022-12-26T17:45:58.040Z,3.20
2022-12-26T17:48:24.488Z,3.15
2022-12-26T17:50:55.372Z,2.97
2022-12-26T17:53:28.048Z,2.80
2022-12-26T17:55:55.506Z,2.78
2022-12-26T17:58:22.457Z,3.05
2022-12-26T18:00:49.865Z,2.72
2022-12-26T18:03:16.278Z,3.00
2022-12-26T18:05:42.867Z,3.45
2022-12-26T18:08:22.600Z,3.13
2022-12-26T18:10:49.044Z,2.85
2022-12-26T18:13:16.034Z,2.88
2022-12-26T18:15:42.544Z,3.08
2022-12-26T18:18:27.890Z,3.70
2022-12-26T18:20:54.382Z,3.20
2022-12-26T18:23:20.930Z,3.13
2022-12-26T18:25:51.461Z,3.08
2022-12-26T18:28:20.621Z,2.53
2022-12-26T18:30:47.029Z,2.58
2022-12-26T18:33:13.672Z,2.95
2022-12-26T18:35:41.370Z,2.03
2022-12-26T18:38:08.368Z,2.70
2022-12-26T18:40:37.002Z,2.72
2022-12-26T18:43:04.681Z,2.40
2022-12-26T18:45:31.314Z,2.40
2022-12-26T18:47:58.160Z,3.08
2022-12-26T18:50:24.706Z,2.22
2022-12-26T18:52:53.862Z,3.08
2022-12-26T18:55:21.885Z,2.58
2022-12-26T18:57:48.376Z,2.78
2022-12-26T19:00:16.218Z,2.67
2022-12-26T19:02:42.649Z,2.65
2022-12-26T19:05:17.056Z,2.83
2022-12-26T19:07:43.501Z,2.83
2022-12-26T19:10:10.500Z,2.38
2022-12-26T19:12:36.895Z,2.40
2022-12-26T19:15:03.467Z,2.58
2022-12-26T19:17:30.132Z,2.80
2022-12-26T19:19:56.499Z,2.67
2022-12-26T19:22:22.900Z,3.15
2022-12-26T19:24:49.349Z,2.97
2022-12-26T19:27:15.877Z,2.47
2022-12-26T19:29:42.313Z,2.53
2022-12-26T19:32:09.071Z,2.75
2022-12-26T19:34:35.464Z,2.53
2022-12-26T19:37:01.938Z,2.60
2022-12-26T19:39:28.348Z,2.50
2022-12-26T19:41:54.851Z,2.78
2022-12-26T19:44:21.270Z,2.88
2022-12-26T19:46:47.662Z,2.65
2022-12-26T19:49:14.047Z,3.58
2022-12-26T19:51:40.416Z,3.03
2022-12-26T19:54:06.899Z,3.70
2022-12-26T19:56:33.872Z,3.00
2022-12-26T19:59:00.711Z,3.75
2022-12-26T20:01:30.085Z,2.75
2022-12-26T20:03:58.245Z,3.63
2022-12-26T20:06:26.357Z,3.67
2022-12-26T20:08:55.465Z,3.83
2022-12-26T20:11:24.566Z,4.38
2022-12-26T20:13:51.326Z,3.25
2022-12-26T20:17:02.715Z,3.50
2022-12-26T20:19:07.606Z,5.85
2022-12-26T20:21:34.208Z,3.88
2022-12-26T20:24:01.436Z,4.95
2022-12-26T20:26:28.683Z,5.10
2022-12-26T20:29:03.836Z,3.58
2022-12-26T20:31:32.229Z,2.63
2022-12-26T20:33:59.072Z,3.88
2022-12-26T20:36:30.279Z,3.55
2022-12-26T20:39:03.628Z,2.40
2022-12-26T20:41:30.152Z,3.13
2022-12-26T20:43:56.599Z,3.20
2022-12-26T20:46:26.246Z,2.78
2022-12-26T20:48:52.724Z,3.40
2022-12-26T20:51:23.060Z,3.40
2022-12-26T20:53:50.676Z,2.33
2022-12-26T20:56:17.145Z,3.47
2022-12-26T20:58:43.540Z,3.47
2022-12-26T21:01:18.707Z,3.60
2022-12-26T21:03:45.434Z,3.88
2022-12-26T21:06:14.876Z,2.85
2022-12-26T21:08:44.201Z,3.45
2022-12-26T21:11:17.701Z,2.80
2022-12-26T21:13:45.802Z,3.13
2022-12-26T21:16:19.534Z,3.10
2022-12-26T21:18:46.256Z,4.13
2022-12-26T21:21:21.966Z,3.83
2022-12-26T21:23:49.514Z,3.33
2022-12-26T21:26:16.195Z,3.42
2022-12-26T21:28:42.643Z,3.10
2022-12-26T21:31:10.349Z,3.67
2022-12-26T21:33:44.183Z,3.58
2022-12-26T21:36:12.383Z,3.33
2022-12-26T21:38:39.014Z,4.18
2022-12-26T21:41:09.709Z,3.60
2022-12-26T21:43:36.290Z,4.05
2022-12-26T21:46:13.413Z,3.75
2022-12-26T21:48:46.786Z,3.20
2022-12-26T21:51:16.570Z,4.05
2022-12-26T21:53:43.499Z,3.50
2022-12-26T21:56:11.295Z,3.55
2022-12-26T21:58:56.553Z,3.47
2022-12-26T22:01:24.571Z,3.08
2022-12-26T22:04:10.668Z,3.33
2022-12-26T22:06:37.669Z,3.20
2022-12-26T22:09:04.762Z,3.67
2022-12-26T22:11:49.647Z,3.75
2022-12-26T22:14:16.137Z,3.50
2022-12-26T22:16:42.527Z,2.70
2022-12-26T22:19:09.253Z,2.85
2022-12-26T22:21:35.665Z,2.72
2022-12-26T22:24:02.052Z,2.80
2022-12-26T22:26:29.341Z,2.65
2022-12-26T22:28:56.907Z,2.55
2022-12-26T22:31:25.526Z,3.08
2022-12-26T22:33:57.270Z,2.55
2022-12-26T22:36:24.397Z,2.53
2022-12-26T22:38:51.076Z,2.15
2022-12-26T22:41:17.945Z,2.88
2022-12-26T22:43:44.958Z,3.13
2022-12-26T22:46:12.350Z,3.90
2022-12-26T22:48:38.889Z,5.05
2022-12-26T22:51:05.446Z,3.58
2022-12-26T22:53:32.192Z,3.30
2022-12-26T22:56:04.262Z,3.30
2022-12-26T22:58:32.052Z,3.40
2022-12-26T23:00:58.783Z,3.00
2022-12-26T23:03:26.047Z,3.60
2022-12-26T23:05:53.195Z,4.90
2022-12-26T23:08:25.724Z,3.97
2022-12-26T23:13:23.640Z,3.15
2022-12-26T23:16:01.760Z,3.47
2022-12-26T23:18:52.476Z,3.33
2022-12-26T23:21:39.115Z,3.50
2022-12-26T23:24:20.630Z,2.60
2022-12-26T23:26:52.053Z,2.30
2022-12-26T23:29:39.083Z,2.75
2022-12-26T23:32:07.041Z,2.40
2022-12-26T23:34:33.622Z,2.33
2022-12-26T23:37:00.298Z,2.53
2022-12-26T23:39:26.690Z,3.40
2022-12-26T23:41:53.123Z,3.28
2022-12-26T23:44:19.494Z,2.67
2022-12-26T23:46:45.894Z,2.95
2022-12-26T23:49:13.686Z,2.50
2022-12-26T23:51:40.734Z,3.13
2022-12-26T23:54:07.175Z,3.78
2022-12-26T23:56:33.578Z,3.63
2022-12-26T23:58:59.931Z,4.22
